Time;durP1;ratioP1;P1;durP2;ratioP2;P2;SDS_P1;SDS_P2;PMS_P1;PMS_P2;Temp;Humidity;BMP_temperature;BMP_pressure;BME280_temperature;BME280_humidity;BME280_pressure;Samples;Min_cycle;Max_cycle;Signal;HPM_P1;HPM_P2
2022/07/24 00:01:25;;;;;;;3.47;2.90;;;;;;;;;;8427365;28;20082;-72
2022/07/24 00:05:25;;;;;;;4.15;2.80;;;;;;;;;;8429828;28;20020;-72
2022/07/24 00:09:25;;;;;;;3.50;2.75;;;;;;;;;;8428340;28;20887;-72
2022/07/24 00:13:25;;;;;;;4.30;3.08;;;;;;;;;;8427372;28;20216;-72
2022/07/24 00:17:25;;;;;;;3.20;2.90;;;;;;;;;;8426722;28;20084;-72
2022/07/24 00:21:26;;;;;;;3.10;2.80;;;;;;;;;;8426099;28;20147;-72
2022/07/24 00:25:26;;;;;;;3.40;2.72;;;;;;;;;;8426565;28;20025;-72
2022/07/24 00:29:26;;;;;;;3.30;3.03;;;;;;;;;;8426836;28;20130;-73
2022/07/24 00:33:27;;;;;;;3.22;2.67;;;;;;;;;;8425462;27;20389;-72
2022/07/24 00:37:27;;;;;;;3.15;2.75;;;;;;;;;;8427650;28;20742;-72
2022/07/24 00:41:27;;;;;;;3.30;2.85;;;;;;;;;;8426190;28;20030;-72
2022/07/24 00:45:27;;;;;;;4.30;3.08;;;;;;;;;;8426745;28;20039;-72
2022/07/24 00:49:27;;;;;;;3.70;2.87;;;;;;;;;;8427840;28;20037;-72
2022/07/24 00:53:29;;;;;;;4.55;3.30;;;;;;;;;;8428022;28;20022;-72
2022/07/24 00:57:30;;;;;;;7.35;3.00;;;;;;;;;;8407315;28;20026;-72
2022/07/24 01:01:30;;;;;;;5.18;3.08;;;;;;;;;;8404901;27;20433;-72
2022/07/24 01:05:30;;;;;;;3.47;3.20;;;;;;;;;;8427041;28;20028;-72
2022/07/24 01:09:31;;;;;;;3.10;2.80;;;;;;;;;;8406444;27;20034;-73
2022/07/24 01:13:31;;;;;;;3.80;3.00;;;;;;;;;;8426445;28;20020;-72
2022/07/24 01:17:36;;;;;;;3.40;3.10;;;;;;;;;;8425400;28;20024;-72
2022/07/24 01:21:37;;;;;;;3.10;2.80;;;;;;;;;;8424048;27;20035;-72
2022/07/24 01:25:37;;;;;;;3.50;2.80;;;;;;;;;;8403918;28;20865;-72
2022/07/24 01:29:37;;;;;;;4.13;2.80;;;;;;;;;;8422002;28;20074;-72
2022/07/24 01:33:37;;;;;;;3.17;2.65;;;;;;;;;;8423197;28;20028;-72
2022/07/24 01:37:37;;;;;;;3.15;2.70;;;;;;;;;;8425654;28;20020;-72
2022/07/24 01:41:38;;;;;;;4.88;3.03;;;;;;;;;;8424731;28;20035;-72
2022/07/24 01:45:38;;;;;;;3.50;2.60;;;;;;;;;;8424105;28;20112;-72
2022/07/24 01:49:38;;;;;;;3.53;2.70;;;;;;;;;;8424254;28;20488;-72
2022/07/24 01:53:38;;;;;;;3.35;2.97;;;;;;;;;;8424776;28;20035;-72
2022/07/24 01:57:39;;;;;;;2.97;2.67;;;;;;;;;;8424702;28;20099;-72
2022/07/24 02:01:39;;;;;;;6.55;2.95;;;;;;;;;;8422920;28;20042;-72
2022/07/24 02:05:39;;;;;;;3.23;2.83;;;;;;;;;;8389300;28;20102;-72
2022/07/24 02:09:40;;;;;;;3.10;2.60;;;;;;;;;;8424937;28;20035;-72
2022/07/24 02:13:40;;;;;;;3.38;2.60;;;;;;;;;;8423929;28;20031;-72
2022/07/24 02:17:45;;;;;;;5.15;2.72;;;;;;;;;;8403062;28;20075;-72
2022/07/24 02:21:45;;;;;;;5.63;2.90;;;;;;;;;;8425168;28;20032;-72
2022/07/24 02:25:49;;;;;;;4.75;3.17;;;;;;;;;;8425050;28;20088;-71
2022/07/24 02:29:49;;;;;;;2.80;2.60;;;;;;;;;;8423660;28;20134;-72
2022/07/24 02:33:49;;;;;;;4.85;2.97;;;;;;;;;;8422404;28;20119;-72
2022/07/24 02:37:49;;;;;;;3.97;2.95;;;;;;;;;;8425083;28;20027;-72
2022/07/24 02:41:50;;;;;;;3.08;2.78;;;;;;;;;;8422041;28;20487;-72
2022/07/24 02:45:50;;;;;;;5.23;3.00;;;;;;;;;;8424924;28;20036;-72
2022/07/24 02:49:50;;;;;;;4.18;3.38;;;;;;;;;;8423655;28;20034;-72
2022/07/24 02:53:50;;;;;;;4.55;2.95;;;;;;;;;;8423678;28;20022;-71
2022/07/24 02:57:51;;;;;;;3.30;3.00;;;;;;;;;;8423845;28;20473;-72
2022/07/24 03:01:51;;;;;;;3.77;3.23;;;;;;;;;;8430903;28;20043;-72
2022/07/24 03:05:51;;;;;;;4.78;2.63;;;;;;;;;;8430973;28;20994;-72
2022/07/24 03:09:51;;;;;;;4.13;2.90;;;;;;;;;;8431700;28;20062;-71
2022/07/24 03:13:51;;;;;;;3.17;2.92;;;;;;;;;;8428439;28;20760;-72
2022/07/24 03:17:53;;;;;;;3.00;2.70;;;;;;;;;;8430405;28;20483;-72
2022/07/24 03:21:53;;;;;;;3.25;2.83;;;;;;;;;;8428844;27;20024;-72
2022/07/24 03:25:54;;;;;;;3.85;3.30;;;;;;;;;;8427984;28;20066;-72
2022/07/24 03:29:54;;;;;;;4.38;3.15;;;;;;;;;;8429701;28;20098;-72
2022/07/24 03:33:54;;;;;;;3.40;2.70;;;;;;;;;;8427525;28;20164;-72
2022/07/24 03:37:54;;;;;;;3.88;2.70;;;;;;;;;;8429885;28;20027;-72
2022/07/24 03:41:55;;;;;;;2.97;2.70;;;;;;;;;;8430012;28;20042;-72
2022/07/24 03:45:55;;;;;;;4.50;3.00;;;;;;;;;;8426155;27;20055;-72
2022/07/24 03:49:55;;;;;;;6.27;3.07;;;;;;;;;;8428851;28;20863;-72
2022/07/24 03:53:56;;;;;;;3.92;3.10;;;;;;;;;;8429200;28;20265;-72
2022/07/24 03:57:56;;;;;;;4.67;2.90;;;;;;;;;;8428118;28;20023;-72
2022/07/24 04:01:56;;;;;;;3.03;2.72;;;;;;;;;;8427103;28;20085;-72
2022/07/24 04:05:56;;;;;;;2.92;2.72;;;;;;;;;;8429151;28;20053;-72
2022/07/24 04:09:57;;;;;;;6.03;2.83;;;;;;;;;;8427448;28;20023;-72
2022/07/24 04:13:57;;;;;;;5.00;2.90;;;;;;;;;;8426989;28;21071;-72
2022/07/24 04:17:57;;;;;;;3.80;2.80;;;;;;;;;;8426541;28;20032;-72
2022/07/24 04:21:57;;;;;;;4.07;2.83;;;;;;;;;;8428411;28;20028;-72
2022/07/24 04:25:57;;;;;;;2.97;2.72;;;;;;;;;;8427602;27;20020;-72
2022/07/24 04:29:57;;;;;;;3.00;2.70;;;;;;;;;;8426526;27;20031;-72
2022/07/24 04:33:58;;;;;;;2.83;2.57;;;;;;;;;;8427035;27;20019;-72
2022/07/24 04:37:58;;;;;;;3.83;2.72;;;;;;;;;;8428808;27;20759;-72
2022/07/24 04:41:58;;;;;;;3.10;2.40;;;;;;;;;;8425928;28;20081;-72
2022/07/24 04:45:59;;;;;;;2.80;2.60;;;;;;;;;;8427688;28;20149;-72
2022/07/24 04:49:59;;;;;;;3.35;2.63;;;;;;;;;;8407691;28;20024;-72
2022/07/24 04:54:00;;;;;;;4.45;2.85;;;;;;;;;;8425923;27;20058;-71
2022/07/24 04:58:00;;;;;;;3.10;2.80;;;;;;;;;;8428271;28;20096;-72
2022/07/24 05:02:01;;;;;;;2.92;2.45;;;;;;;;;;8423033;28;20805;-72
2022/07/24 05:06:01;;;;;;;2.80;2.50;;;;;;;;;;8428126;28;20139;-72
2022/07/24 05:10:02;;;;;;;2.70;2.50;;;;;;;;;;8426602;28;20760;-72
2022/07/24 05:14:02;;;;;;;2.90;2.60;;;;;;;;;;8425448;27;20024;-72
2022/07/24 05:18:02;;;;;;;3.10;2.80;;;;;;;;;;8426812;27;20031;-72
2022/07/24 05:22:03;;;;;;;4.75;2.60;;;;;;;;;;8424365;28;20019;-71
2022/07/24 05:26:03;;;;;;;3.05;2.55;;;;;;;;;;8424709;28;20926;-72
2022/07/24 05:30:04;;;;;;;2.85;2.55;;;;;;;;;;8423535;28;20468;-72
2022/07/24 05:34:06;;;;;;;3.60;2.47;;;;;;;;;;8424970;28;20436;-72
2022/07/24 05:38:06;;;;;;;3.95;2.70;;;;;;;;;;8428050;28;20008;-72
2022/07/24 05:42:06;;;;;;;3.90;2.55;;;;;;;;;;8424214;28;21104;-72
2022/07/24 05:46:06;;;;;;;4.70;2.43;;;;;;;;;;8425599;28;20104;-72
2022/07/24 05:50:07;;;;;;;3.50;2.55;;;;;;;;;;8424999;28;20127;-72
2022/07/24 05:54:08;;;;;;;2.80;2.60;;;;;;;;;;8427246;27;20142;-72
2022/07/24 05:58:08;;;;;;;4.30;2.43;;;;;;;;;;8424707;28;20030;-72
2022/07/24 06:02:08;;;;;;;2.78;2.50;;;;;;;;;;8424646;28;20258;-72
2022/07/24 06:06:08;;;;;;;2.78;2.50;;;;;;;;;;8425513;28;20027;-73
2022/07/24 06:10:09;;;;;;;2.88;2.40;;;;;;;;;;8425963;28;20026;-73
2022/07/24 06:14:09;;;;;;;4.18;2.65;;;;;;;;;;8406706;28;20031;-73
2022/07/24 06:18:09;;;;;;;4.78;2.67;;;;;;;;;;8424969;28;20036;-73
2022/07/24 06:22:09;;;;;;;2.85;2.60;;;;;;;;;;8406249;28;20130;-73
2022/07/24 06:26:09;;;;;;;4.13;2.40;;;;;;;;;;8425448;28;20024;-73
2022/07/24 06:30:13;;;;;;;2.53;2.20;;;;;;;;;;8423663;28;20118;-74
2022/07/24 06:34:13;;;;;;;2.50;2.30;;;;;;;;;;8436572;27;20026;-73
2022/07/24 06:38:15;;;;;;;3.35;2.42;;;;;;;;;;8436620;27;20103;-73
2022/07/24 06:42:16;;;;;;;5.63;2.60;;;;;;;;;;8433574;27;20076;-73
2022/07/24 06:46:16;;;;;;;3.00;2.53;;;;;;;;;;8434659;27;20028;-73
2022/07/24 06:50:16;;;;;;;2.90;2.50;;;;;;;;;;8433776;27;20928;-73
2022/07/24 06:54:16;;;;;;;3.05;2.60;;;;;;;;;;8433762;27;20027;-72
2022/07/24 06:58:17;;;;;;;2.85;2.47;;;;;;;;;;8436200;27;20959;-73
2022/07/24 07:02:17;;;;;;;2.73;2.53;;;;;;;;;;8433690;28;20062;-73
2022/07/24 07:06:17;;;;;;;3.73;2.60;;;;;;;;;;8436879;27;20410;-73
2022/07/24 07:10:19;;;;;;;2.50;2.20;;;;;;;;;;8415267;28;20273;-72
2022/07/24 07:14:19;;;;;;;3.53;2.67;;;;;;;;;;8434667;27;20269;-72
2022/07/24 07:18:19;;;;;;;2.83;2.50;;;;;;;;;;8434827;27;20036;-73
2022/07/24 07:22:20;;;;;;;5.63;2.60;;;;;;;;;;8415015;27;20321;-73
2022/07/24 07:26:20;;;;;;;4.33;2.87;;;;;;;;;;8415045;27;20020;-73
2022/07/24 07:30:21;;;;;;;4.30;2.90;;;;;;;;;;8432862;27;20026;-73
2022/07/24 07:34:21;;;;;;;4.65;2.40;;;;;;;;;;8433243;27;20368;-72
2022/07/24 07:38:22;;;;;;;3.35;2.60;;;;;;;;;;8434409;27;20020;-73
2022/07/24 07:42:22;;;;;;;6.50;2.70;;;;;;;;;;8430386;27;20027;-73
2022/07/24 07:46:22;;;;;;;3.10;2.70;;;;;;;;;;8426319;28;21374;-72
2022/07/24 07:50:23;;;;;;;3.00;2.70;;;;;;;;;;8425510;27;20023;-72
2022/07/24 07:54:23;;;;;;;3.20;2.22;;;;;;;;;;8426921;28;20801;-72
2022/07/24 07:58:23;;;;;;;2.90;2.70;;;;;;;;;;8425602;28;20020;-72
2022/07/24 08:02:24;;;;;;;2.90;2.70;;;;;;;;;;8423602;28;20043;-72
2022/07/24 08:06:24;;;;;;;2.50;2.30;;;;;;;;;;8429059;28;20019;-73
2022/07/24 08:10:25;;;;;;;5.93;2.60;;;;;;;;;;8427023;28;20039;-73
2022/07/24 08:14:25;;;;;;;3.97;2.50;;;;;;;;;;8426152;28;20669;-73
2022/07/24 08:18:25;;;;;;;3.57;2.70;;;;;;;;;;8424933;27;20105;-73
2022/07/24 08:22:25;;;;;;;3.20;2.70;;;;;;;;;;8426507;28;20031;-73
2022/07/24 08:26:30;;;;;;;7.38;2.80;;;;;;;;;;8426337;27;20129;-72
2022/07/24 08:30:30;;;;;;;7.72;2.90;;;;;;;;;;8425379;28;20039;-73
2022/07/24 08:34:30;;;;;;;3.53;2.33;;;;;;;;;;8426085;28;20027;-72
2022/07/24 08:38:31;;;;;;;3.35;2.53;;;;;;;;;;8426583;27;20439;-74
2022/07/24 08:42:31;;;;;;;4.53;2.70;;;;;;;;;;8425188;27;20096;-73
2022/07/24 08:46:32;;;;;;;3.37;2.80;;;;;;;;;;8425696;28;20877;-73
2022/07/24 08:50:33;;;;;;;5.03;2.30;;;;;;;;;;8426133;27;20032;-73
2022/07/24 08:54:34;;;;;;;2.83;2.57;;;;;;;;;;8422976;28;20031;-73
2022/07/24 08:58:38;;;;;;;4.97;2.78;;;;;;;;;;8425455;28;20035;-73
2022/07/24 09:02:39;;;;;;;3.10;2.80;;;;;;;;;;8423691;27;20040;-73
2022/07/24 09:06:55;;;;;;;3.10;2.80;;;;;;;;;;8424974;28;20104;-73
2022/07/24 09:10:55;;;;;;;3.95;2.38;;;;;;;;;;8421941;28;20305;-72
2022/07/24 09:14:56;;;;;;;5.97;3.10;;;;;;;;;;8401927;28;20032;-72
2022/07/24 09:19:07;;;;;;;4.03;3.10;;;;;;;;;;8424324;28;20075;-72
2022/07/24 09:23:07;;;;;;;6.45;2.95;;;;;;;;;;8423876;28;21325;-72
2022/07/24 09:27:13;;;;;;;3.35;2.90;;;;;;;;;;8423474;28;20588;-73
2022/07/24 09:31:13;;;;;;;4.53;2.80;;;;;;;;;;8418065;28;20765;-73
2022/07/24 09:35:14;;;;;;;5.65;3.08;;;;;;;;;;8423148;28;20019;-73
2022/07/24 09:39:17;;;;;;;3.07;2.80;;;;;;;;;;8423584;28;20015;-73
2022/07/24 09:43:24;;;;;;;3.28;2.95;;;;;;;;;;8423776;28;21033;-73
2022/07/24 09:47:25;;;;;;;3.13;2.83;;;;;;;;;;8420511;28;20036;-73
2022/07/24 09:51:26;;;;;;;2.80;2.60;;;;;;;;;;8422469;28;20045;-73
2022/07/24 09:55:26;;;;;;;4.35;3.05;;;;;;;;;;8422740;28;20084;-73
2022/07/24 09:59:28;;;;;;;5.70;3.30;;;;;;;;;;8422922;28;20031;-73
2022/07/24 10:03:30;;;;;;;4.13;2.85;;;;;;;;;;8421228;28;20104;-74
2022/07/24 10:07:31;;;;;;;6.07;3.17;;;;;;;;;;8403711;28;20876;-73
2022/07/24 10:11:33;;;;;;;7.03;2.90;;;;;;;;;;8402694;28;20046;-74
2022/07/24 10:15:38;;;;;;;5.35;2.70;;;;;;;;;;8403755;28;20099;-74
2022/07/24 10:19:40;;;;;;;3.13;2.83;;;;;;;;;;8417843;28;20055;-74
2022/07/24 10:23:58;;;;;;;3.97;2.70;;;;;;;;;;8422676;28;20035;-74
2022/07/24 10:28:01;;;;;;;3.35;3.05;;;;;;;;;;8422540;28;20027;-73
2022/07/24 10:32:02;;;;;;;4.10;2.83;;;;;;;;;;8420536;28;20043;-74
2022/07/24 10:36:06;;;;;;;9.82;3.30;;;;;;;;;;8423839;28;20185;-74
2022/07/24 10:40:15;;;;;;;5.35;2.92;;;;;;;;;;8422536;28;20046;-74
2022/07/24 10:44:17;;;;;;;3.78;3.08;;;;;;;;;;8423114;28;20701;-75
2022/07/24 10:48:20;;;;;;;5.07;3.20;;;;;;;;;;8421804;28;20058;-75
2022/07/24 10:52:25;;;;;;;4.13;3.00;;;;;;;;;;8422978;28;20704;-74
2022/07/24 10:56:38;;;;;;;4.10;3.50;;;;;;;;;;8419466;28;20024;-74
2022/07/24 11:00:40;;;;;;;4.25;3.03;;;;;;;;;;8421503;28;20036;-74
2022/07/24 11:04:40;;;;;;;6.88;3.17;;;;;;;;;;8421111;28;20023;-75
2022/07/24 11:08:41;;;;;;;4.25;3.15;;;;;;;;;;8423923;28;20141;-76
2022/07/24 11:12:43;;;;;;;4.20;3.22;;;;;;;;;;8421663;28;20034;-74
2022/07/24 11:16:43;;;;;;;;;;;;;;;;;;8420449;28;20031;-73
2022/07/24 11:20:43;;;;;;;10.68;3.47;;;;;;;;;;8424797;27;20908;-71
2022/07/24 11:25:03;;;;;;;3.55;2.90;;;;;;;;;;8427618;28;20027;-71
2022/07/24 11:29:11;;;;;;;4.22;3.40;;;;;;;;;;8421934;28;20102;-71
2022/07/24 11:33:16;;;;;;;3.63;3.20;;;;;;;;;;8426458;28;20070;-71
2022/07/24 11:37:17;;;;;;;4.20;3.25;;;;;;;;;;8427631;27;20035;-73
2022/07/24 11:41:17;;;;;;;3.80;3.10;;;;;;;;;;8428189;28;20023;-71
2022/07/24 11:45:17;;;;;;;5.20;3.50;;;;;;;;;;8426298;28;20027;-72
2022/07/24 11:49:18;;;;;;;3.58;3.03;;;;;;;;;;8427902;28;20038;-74
2022/07/24 11:53:18;;;;;;;3.85;3.08;;;;;;;;;;8427160;28;20016;-72
2022/07/24 11:57:20;;;;;;;5.03;3.20;;;;;;;;;;8427715;28;20073;-74
2022/07/24 12:01:21;;;;;;;3.63;3.08;;;;;;;;;;8426004;27;20731;-72
2022/07/24 12:05:26;;;;;;;3.10;2.80;;;;;;;;;;8408830;28;20028;-72
2022/07/24 12:09:27;;;;;;;3.33;3.03;;;;;;;;;;8408011;28;20961;-71
2022/07/24 12:13:28;;;;;;;4.03;3.07;;;;;;;;;;8399607;28;20317;-71
2022/07/24 12:17:29;;;;;;;3.60;3.00;;;;;;;;;;8426132;28;20786;-72
2022/07/24 12:21:30;;;;;;;3.55;3.20;;;;;;;;;;8408252;28;20432;-72
2022/07/24 12:25:31;;;;;;;3.33;2.57;;;;;;;;;;8428542;28;20096;-72
2022/07/24 12:29:40;;;;;;;3.28;2.70;;;;;;;;;;8425688;28;20031;-71
2022/07/24 12:33:52;;;;;;;3.55;2.92;;;;;;;;;;8421452;27;20040;-73
2022/07/24 12:37:52;;;;;;;2.80;2.60;;;;;;;;;;8424936;28;20019;-72
2022/07/24 12:41:53;;;;;;;2.67;2.47;;;;;;;;;;8422102;28;20028;-72
2022/07/24 12:45:54;;;;;;;;;;;;;;;;;;8424083;28;20156;-72
2022/07/24 12:49:54;;;;;;;2.83;2.50;;;;;;;;;;8425765;27;19955;-71
2022/07/24 12:53:55;;;;;;;3.25;2.70;;;;;;;;;;8424243;28;20130;-72
2022/07/24 12:57:59;;;;;;;3.10;2.90;;;;;;;;;;8424475;28;20038;-72
2022/07/24 13:02:10;;;;;;;4.53;2.92;;;;;;;;;;8423351;28;20844;-72
2022/07/24 13:06:11;;;;;;;3.10;2.80;;;;;;;;;;8420863;28;20022;-72
2022/07/24 13:10:11;;;;;;;3.20;2.90;;;;;;;;;;8401120;28;20027;-72
2022/07/24 13:14:12;;;;;;;4.35;2.92;;;;;;;;;;8422143;28;20027;-72
2022/07/24 13:18:12;;;;;;;2.80;2.60;;;;;;;;;;8422741;28;20086;-72
2022/07/24 13:22:13;;;;;;;3.70;2.90;;;;;;;;;;8400698;28;20030;-72
2022/07/24 13:26:13;;;;;;;3.23;2.93;;;;;;;;;;8422195;27;20034;-73
2022/07/24 13:30:13;;;;;;;3.50;2.92;;;;;;;;;;8421510;28;20027;-73
2022/07/24 13:34:13;;;;;;;3.47;3.17;;;;;;;;;;8424174;27;20015;-72
2022/07/24 13:38:13;;;;;;;4.10;3.37;;;;;;;;;;8377743;28;20026;-72
2022/07/24 13:42:14;;;;;;;3.00;2.80;;;;;;;;;;8420207;28;20028;-72
2022/07/24 13:46:15;;;;;;;3.10;2.80;;;;;;;;;;8423650;28;20187;-72
2022/07/24 13:50:15;;;;;;;3.03;2.83;;;;;;;;;;8420960;27;20039;-72
2022/07/24 13:54:15;;;;;;;3.13;2.90;;;;;;;;;;8423542;28;20039;-75
2022/07/24 13:58:15;;;;;;;3.55;3.17;;;;;;;;;;8420835;28;20019;-73
2022/07/24 14:02:16;;;;;;;3.60;3.30;;;;;;;;;;8422092;28;20147;-73
2022/07/24 14:06:16;;;;;;;3.57;3.27;;;;;;;;;;8425605;28;20464;-74
2022/07/24 14:10:16;;;;;;;4.22;3.40;;;;;;;;;;8418925;28;20020;-71
2022/07/24 14:14:16;;;;;;;3.60;3.30;;;;;;;;;;8420906;28;20930;-71
2022/07/24 14:18:17;;;;;;;3.77;3.47;;;;;;;;;;8417964;27;20035;-71
2022/07/24 14:22:17;;;;;;;5.63;3.43;;;;;;;;;;8421442;28;20024;-71
2022/07/24 14:26:17;;;;;;;4.53;3.53;;;;;;;;;;8422444;28;20054;-71
2022/07/24 14:30:17;;;;;;;4.43;3.63;;;;;;;;;;8419090;28;20016;-70
2022/07/24 14:34:18;;;;;;;3.97;3.47;;;;;;;;;;8422310;28;20316;-70
2022/07/24 14:38:18;;;;;;;4.33;3.30;;;;;;;;;;8418744;28;20496;-70
2022/07/24 14:42:18;;;;;;;3.70;3.40;;;;;;;;;;8421317;28;20875;-71
2022/07/24 14:46:18;;;;;;;5.07;3.70;;;;;;;;;;8421941;28;20038;-74
2022/07/24 14:50:19;;;;;;;3.78;3.47;;;;;;;;;;8422938;28;20028;-72
2022/07/24 14:54:20;;;;;;;4.23;3.63;;;;;;;;;;8429205;28;20026;-73
2022/07/24 14:58:20;;;;;;;3.97;3.67;;;;;;;;;;8429541;28;20019;-74
2022/07/24 15:02:20;;;;;;;3.97;3.60;;;;;;;;;;8427734;27;20864;-72
2022/07/24 15:06:21;;;;;;;4.07;3.77;;;;;;;;;;8430708;27;20023;-71
2022/07/24 15:10:21;;;;;;;5.20;4.30;;;;;;;;;;8410021;28;20031;-73
2022/07/24 15:14:21;;;;;;;5.82;4.93;;;;;;;;;;8427354;28;20028;-71
2022/07/24 15:18:22;;;;;;;4.38;3.95;;;;;;;;;;8428786;28;20036;-71
2022/07/24 15:22:22;;;;;;;7.60;6.70;;;;;;;;;;8428322;28;20138;-72
2022/07/24 15:26:22;;;;;;;5.37;4.83;;;;;;;;;;8428340;28;20020;-73
2022/07/24 15:30:23;;;;;;;5.30;4.80;;;;;;;;;;8406851;28;20051;-72
2022/07/24 15:34:23;;;;;;;6.82;4.18;;;;;;;;;;8427009;28;20030;-70
2022/07/24 15:38:23;;;;;;;7.68;6.88;;;;;;;;;;8430224;28;20011;-73
2022/07/24 15:42:23;;;;;;;5.77;4.13;;;;;;;;;;8409848;27;20030;-72
2022/07/24 15:46:24;;;;;;;4.63;4.15;;;;;;;;;;8428582;28;20971;-73
2022/07/24 15:50:24;;;;;;;4.60;4.20;;;;;;;;;;8407563;27;20053;-71
2022/07/24 15:54:25;;;;;;;5.93;4.10;;;;;;;;;;8427849;27;20974;-72
2022/07/24 15:58:25;;;;;;;4.27;3.87;;;;;;;;;;8426053;28;20035;-73
2022/07/24 16:02:26;;;;;;;4.25;3.60;;;;;;;;;;8426357;28;20266;-72
2022/07/24 16:06:26;;;;;;;4.87;3.90;;;;;;;;;;8427182;28;20072;-71
2022/07/24 16:10:26;;;;;;;7.95;4.30;;;;;;;;;;8426153;27;20023;-71
2022/07/24 16:14:26;;;;;;;5.68;4.15;;;;;;;;;;8428629;28;20016;-72
2022/07/24 16:18:27;;;;;;;4.15;3.85;;;;;;;;;;8426071;27;20081;-73
2022/07/24 16:22:28;;;;;;;4.22;3.92;;;;;;;;;;8426282;28;20158;-73
2022/07/24 16:26:28;;;;;;;5.35;4.32;;;;;;;;;;8426582;28;20063;-73
2022/07/24 16:30:28;;;;;;;4.73;4.23;;;;;;;;;;8426764;28;20070;-72
2022/07/24 16:34:28;;;;;;;6.07;4.35;;;;;;;;;;8424986;28;20019;-73
2022/07/24 16:38:28;;;;;;;4.55;3.95;;;;;;;;;;8427623;27;20030;-70
2022/07/24 16:42:29;;;;;;;4.72;4.30;;;;;;;;;;8424892;28;20028;-74
2022/07/24 16:46:29;;;;;;;6.45;5.10;;;;;;;;;;8425938;27;20451;-72
2022/07/24 16:50:30;;;;;;;4.50;4.10;;;;;;;;;;8424758;28;20011;-72
2022/07/24 16:54:30;;;;;;;4.27;3.90;;;;;;;;;;8425441;28;20142;-72
2022/07/24 16:58:30;;;;;;;4.50;3.72;;;;;;;;;;8407338;28;20106;-72
2022/07/24 17:02:30;;;;;;;6.32;3.80;;;;;;;;;;8424005;28;20038;-71
2022/07/24 17:06:31;;;;;;;6.10;4.15;;;;;;;;;;8423562;28;20011;-71
2022/07/24 17:10:31;;;;;;;6.10;3.53;;;;;;;;;;8422956;28;20055;-72
2022/07/24 17:14:32;;;;;;;5.83;3.90;;;;;;;;;;8425148;27;20573;-72
2022/07/24 17:18:32;;;;;;;3.90;3.53;;;;;;;;;;8424719;28;20035;-71
2022/07/24 17:22:33;;;;;;;3.92;3.58;;;;;;;;;;8423885;27;20989;-73
2022/07/24 17:26:33;;;;;;;4.50;3.80;;;;;;;;;;8420696;28;20213;-71
2022/07/24 17:30:33;;;;;;;5.05;4.20;;;;;;;;;;8422424;28;20039;-74
2022/07/24 17:34:34;;;;;;;3.95;3.63;;;;;;;;;;8423800;27;20023;-73
2022/07/24 17:38:34;;;;;;;4.13;3.60;;;;;;;;;;8422570;28;20802;-73
2022/07/24 17:42:35;;;;;;;3.72;3.42;;;;;;;;;;8421216;28;20153;-72
2022/07/24 17:46:35;;;;;;;4.15;3.75;;;;;;;;;;8418994;28;20066;-72
2022/07/24 17:50:35;;;;;;;4.15;3.58;;;;;;;;;;8423295;28;20023;-73
2022/07/24 17:54:35;;;;;;;4.10;3.70;;;;;;;;;;8422270;28;20019;-71
2022/07/24 17:58:36;;;;;;;4.30;3.50;;;;;;;;;;8423456;28;20027;-73
2022/07/24 18:02:38;;;;;;;3.72;3.22;;;;;;;;;;8420092;28;20027;-72
2022/07/24 18:06:38;;;;;;;3.70;3.38;;;;;;;;;;8420302;28;20445;-73
2022/07/24 18:10:39;;;;;;;3.90;3.58;;;;;;;;;;8416911;28;20051;-73
2022/07/24 18:14:39;;;;;;;4.17;3.30;;;;;;;;;;8422147;28;20019;-72
2022/07/24 18:18:39;;;;;;;3.45;3.15;;;;;;;;;;8422001;28;20068;-73
2022/07/24 18:22:40;;;;;;;3.70;3.40;;;;;;;;;;8422847;28;20035;-72
2022/07/24 18:26:40;;;;;;;3.53;3.22;;;;;;;;;;8422870;28;20045;-71
2022/07/24 18:30:40;;;;;;;7.97;3.43;;;;;;;;;;8419654;28;20046;-70
2022/07/24 18:34:40;;;;;;;3.20;2.90;;;;;;;;;;8420599;28;20100;-71
2022/07/24 18:38:41;;;;;;;3.08;2.88;;;;;;;;;;8419242;28;20031;-71
2022/07/24 18:42:42;;;;;;;4.53;3.28;;;;;;;;;;8418170;28;20115;-71
2022/07/24 18:46:42;;;;;;;3.35;3.05;;;;;;;;;;8420848;28;20139;-70
2022/07/24 18:50:43;;;;;;;3.40;3.10;;;;;;;;;;8420057;28;20051;-71
2022/07/24 18:54:43;;;;;;;4.37;3.20;;;;;;;;;;8420375;28;20015;-70
2022/07/24 18:58:44;;;;;;;3.40;3.10;;;;;;;;;;8421522;28;20152;-70
2022/07/24 19:02:44;;;;;;;3.22;2.92;;;;;;;;;;8418906;28;20036;-70
2022/07/24 19:06:44;;;;;;;4.00;3.20;;;;;;;;;;8420782;28;20026;-71
2022/07/24 19:10:45;;;;;;;3.30;3.00;;;;;;;;;;8420234;28;20463;-71
2022/07/24 19:14:45;;;;;;;3.90;3.40;;;;;;;;;;8419272;28;20073;-71
2022/07/24 19:18:45;;;;;;;3.92;3.45;;;;;;;;;;8416962;28;20040;-71
2022/07/24 19:22:46;;;;;;;6.28;3.58;;;;;;;;;;8416524;28;20019;-71
2022/07/24 19:26:46;;;;;;;3.90;3.55;;;;;;;;;;8418742;28;20020;-71
2022/07/24 19:30:46;;;;;;;4.65;3.70;;;;;;;;;;8415810;28;20036;-71
2022/07/24 19:34:46;;;;;;;3.70;3.40;;;;;;;;;;8418413;28;20015;-71
2022/07/24 19:38:47;;;;;;;3.63;3.27;;;;;;;;;;8416459;28;20028;-71
2022/07/24 19:42:47;;;;;;;3.70;3.40;;;;;;;;;;8422183;28;20028;-71
2022/07/24 19:46:48;;;;;;;3.88;3.08;;;;;;;;;;8421082;28;20031;-72
2022/07/24 19:50:48;;;;;;;3.30;3.00;;;;;;;;;;8419930;28;20253;-71
2022/07/24 19:54:48;;;;;;;3.38;3.13;;;;;;;;;;8396986;28;20027;-72
2022/07/24 19:58:48;;;;;;;10.37;3.33;;;;;;;;;;8421644;28;20047;-72
2022/07/24 20:02:48;;;;;;;3.50;3.20;;;;;;;;;;8419856;27;20377;-70
2022/07/24 20:06:49;;;;;;;4.30;3.63;;;;;;;;;;8424686;27;20024;-72
2022/07/24 20:10:49;;;;;;;4.18;3.05;;;;;;;;;;8420870;28;20059;-72
2022/07/24 20:14:49;;;;;;;4.10;3.40;;;;;;;;;;8421426;28;20027;-74
2022/07/24 20:18:49;;;;;;;3.95;3.40;;;;;;;;;;8418908;27;20220;-73
2022/07/24 20:22:49;;;;;;;3.40;3.10;;;;;;;;;;8421241;27;20027;-73
2022/07/24 20:26:50;;;;;;;3.93;3.53;;;;;;;;;;8422678;28;20128;-72
2022/07/24 20:30:50;;;;;;;6.72;5.00;;;;;;;;;;8421088;28;20299;-72
2022/07/24 20:34:50;;;;;;;5.60;4.53;;;;;;;;;;8424074;28;20036;-70
2022/07/24 20:38:50;;;;;;;4.35;3.85;;;;;;;;;;8422496;27;20024;-71
2022/07/24 20:42:50;;;;;;;5.05;3.92;;;;;;;;;;8422808;28;20057;-71
2022/07/24 20:46:51;;;;;;;3.53;3.22;;;;;;;;;;8422752;27;20093;-70
2022/07/24 20:50:51;;;;;;;3.85;3.20;;;;;;;;;;8402956;28;20074;-71
2022/07/24 20:54:51;;;;;;;3.38;3.08;;;;;;;;;;8424936;28;20104;-71
2022/07/24 20:58:51;;;;;;;3.17;2.85;;;;;;;;;;8421464;28;20069;-69
2022/07/24 21:02:51;;;;;;;3.60;3.30;;;;;;;;;;8422141;28;20217;-71
2022/07/24 21:06:52;;;;;;;5.50;3.47;;;;;;;;;;8422008;28;20091;-69
2022/07/24 21:10:52;;;;;;;3.50;3.20;;;;;;;;;;8400124;27;20051;-69
2022/07/24 21:14:52;;;;;;;4.15;3.38;;;;;;;;;;8399097;27;20187;-69
2022/07/24 21:18:52;;;;;;;4.07;3.17;;;;;;;;;;8418733;28;20032;-70
2022/07/24 21:22:53;;;;;;;3.40;3.10;;;;;;;;;;8422332;28;20122;-71
2022/07/24 21:26:53;;;;;;;4.05;2.78;;;;;;;;;;8424921;28;20142;-71
2022/07/24 21:30:53;;;;;;;3.17;2.83;;;;;;;;;;8418532;28;20113;-71
2022/07/24 21:34:53;;;;;;;3.85;2.88;;;;;;;;;;8422888;28;20469;-73
2022/07/24 21:38:53;;;;;;;3.00;2.70;;;;;;;;;;8424202;28;20115;-72
2022/07/24 21:42:53;;;;;;;3.67;2.70;;;;;;;;;;8416791;28;20039;-73
2022/07/24 21:46:54;;;;;;;3.63;2.47;;;;;;;;;;8422530;28;20042;-73
2022/07/24 21:50:54;;;;;;;2.90;2.70;;;;;;;;;;8422996;28;20045;-73
2022/07/24 21:54:54;;;;;;;3.40;3.00;;;;;;;;;;8425294;28;20544;-73
2022/07/24 21:58:55;;;;;;;3.10;2.80;;;;;;;;;;8423483;28;20283;-72
2022/07/24 22:02:55;;;;;;;2.78;2.58;;;;;;;;;;8422224;27;20042;-73
2022/07/24 22:06:56;;;;;;;3.30;3.00;;;;;;;;;;8425075;28;20441;-72
2022/07/24 22:10:56;;;;;;;3.10;2.83;;;;;;;;;;8403049;28;23104;-73
2022/07/24 22:14:56;;;;;;;3.20;2.90;;;;;;;;;;8423103;28;21712;-73
2022/07/24 22:18:56;;;;;;;2.93;2.73;;;;;;;;;;8423858;28;20158;-73
2022/07/24 22:22:57;;;;;;;3.20;2.90;;;;;;;;;;8406285;28;20027;-73
2022/07/24 22:26:57;;;;;;;3.47;2.57;;;;;;;;;;8423517;28;20051;-73
2022/07/24 22:30:57;;;;;;;3.28;3.03;;;;;;;;;;8422219;28;20096;-73
2022/07/24 22:34:58;;;;;;;3.50;2.73;;;;;;;;;;8423764;28;20027;-73
2022/07/24 22:38:59;;;;;;;3.17;2.85;;;;;;;;;;8424977;28;21146;-73
2022/07/24 22:42:59;;;;;;;3.22;2.90;;;;;;;;;;8423565;28;20123;-73
2022/07/24 22:47:00;;;;;;;3.08;2.85;;;;;;;;;;8421574;28;20036;-73
2022/07/24 22:51:00;;;;;;;3.72;2.65;;;;;;;;;;8423673;28;20035;-72
2022/07/24 22:55:00;;;;;;;3.13;2.83;;;;;;;;;;8404778;28;20011;-73
2022/07/24 22:59:02;;;;;;;3.10;2.80;;;;;;;;;;8404516;28;20016;-73
2022/07/24 23:03:02;;;;;;;3.17;2.90;;;;;;;;;;8422766;28;20101;-73
2022/07/24 23:07:03;;;;;;;3.28;2.97;;;;;;;;;;8424952;28;20015;-73
2022/07/24 23:11:03;;;;;;;3.50;3.03;;;;;;;;;;8421936;28;20066;-73
2022/07/24 23:15:07;;;;;;;3.20;2.90;;;;;;;;;;8427861;28;20027;-73
2022/07/24 23:19:07;;;;;;;3.83;3.00;;;;;;;;;;8427352;28;20016;-73
2022/07/24 23:23:07;;;;;;;3.05;2.85;;;;;;;;;;8426086;27;20092;-73
2022/07/24 23:27:08;;;;;;;3.47;3.10;;;;;;;;;;8426428;28;20030;-73
2022/07/24 23:31:08;;;;;;;3.13;2.90;;;;;;;;;;8427761;28;20035;-73
2022/07/24 23:35:08;;;;;;;3.50;3.20;;;;;;;;;;8427778;28;20030;-73
2022/07/24 23:39:08;;;;;;;3.47;3.17;;;;;;;;;;8429440;27;20023;-73
2022/07/24 23:43:08;;;;;;;3.40;3.10;;;;;;;;;;8428844;28;20277;-73
2022/07/24 23:47:09;;;;;;;3.28;3.08;;;;;;;;;;8428262;27;20101;-73
2022/07/24 23:51:09;;;;;;;3.58;3.28;;;;;;;;;;8428264;27;20388;-72
2022/07/24 23:55:09;;;;;;;3.40;2.95;;;;;;;;;;8410244;28;20107;-72
2022/07/24 23:59:09;;;;;;;3.40;3.10;;;;;;;;;;8429130;28;20024;-73
